sensor_id;sensor_type;location;lat;lon;timestamp;P1;durP1;ratioP1;P2;durP2;ratioP2
21032;SDS011;10675;47.976;7.824;2022-12-13T00:00:36;13.47;;;6.63;;
21032;SDS011;10675;47.976;7.824;2022-12-13T00:03:02;9.17;;;5.13;;
21032;SDS011;10675;47.976;7.824;2022-12-13T00:05:27;14.50;;;6.20;;
21032;SDS011;10675;47.976;7.824;2022-12-13T00:07:53;11.73;;;5.00;;
21032;SDS011;10675;47.976;7.824;2022-12-13T00:10:19;12.73;;;6.20;;
21032;SDS011;10675;47.976;7.824;2022-12-13T00:12:44;11.43;;;5.03;;
21032;SDS011;10675;47.976;7.824;2022-12-13T00:15:10;10.90;;;5.47;;
21032;SDS011;10675;47.976;7.824;2022-12-13T00:17:35;10.90;;;5.67;;
21032;SDS011;10675;47.976;7.824;2022-12-13T00:20:01;10.33;;;5.17;;
21032;SDS011;10675;47.976;7.824;2022-12-13T00:22:27;9.00;;;5.30;;
21032;SDS011;10675;47.976;7.824;2022-12-13T00:24:53;12.93;;;6.00;;
21032;SDS011;10675;47.976;7.824;2022-12-13T00:27:20;15.17;;;5.43;;
21032;SDS011;10675;47.976;7.824;2022-12-13T00:29:46;8.27;;;5.73;;
21032;SDS011;10675;47.976;7.824;2022-12-13T00:32:11;11.80;;;4.67;;
21032;SDS011;10675;47.976;7.824;2022-12-13T00:34:37;11.73;;;5.50;;
21032;SDS011;10675;47.976;7.824;2022-12-13T00:37:03;9.67;;;5.53;;
21032;SDS011;10675;47.976;7.824;2022-12-13T00:39:28;12.07;;;5.73;;
21032;SDS011;10675;47.976;7.824;2022-12-13T00:41:54;9.93;;;4.87;;
21032;SDS011;10675;47.976;7.824;2022-12-13T00:44:20;10.07;;;5.43;;
21032;SDS011;10675;47.976;7.824;2022-12-13T00:46:46;11.93;;;5.27;;
21032;SDS011;10675;47.976;7.824;2022-12-13T00:49:11;6.23;;;3.17;;
21032;SDS011;10675;47.976;7.824;2022-12-13T00:51:37;9.73;;;5.00;;
21032;SDS011;10675;47.976;7.824;2022-12-13T00:54:03;13.03;;;5.50;;
21032;SDS011;10675;47.976;7.824;2022-12-13T00:56:30;7.90;;;5.13;;
21032;SDS011;10675;47.976;7.824;2022-12-13T00:58:56;8.53;;;4.83;;
21032;SDS011;10675;47.976;7.824;2022-12-13T01:01:23;15.67;;;5.00;;
21032;SDS011;10675;47.976;7.824;2022-12-13T01:03:54;11.37;;;4.77;;
21032;SDS011;10675;47.976;7.824;2022-12-13T01:06:25;9.97;;;5.20;;
21032;SDS011;10675;47.976;7.824;2022-12-13T01:08:55;8.63;;;4.67;;
21032;SDS011;10675;47.976;7.824;2022-12-13T01:11:20;12.87;;;6.50;;
21032;SDS011;10675;47.976;7.824;2022-12-13T01:13:46;10.63;;;4.80;;
21032;SDS011;10675;47.976;7.824;2022-12-13T01:16:12;8.37;;;4.30;;
21032;SDS011;10675;47.976;7.824;2022-12-13T01:18:38;8.10;;;4.40;;
21032;SDS011;10675;47.976;7.824;2022-12-13T01:21:14;15.20;;;6.00;;
21032;SDS011;10675;47.976;7.824;2022-12-13T01:23:42;10.63;;;5.43;;
21032;SDS011;10675;47.976;7.824;2022-12-13T01:26:09;7.90;;;5.10;;
21032;SDS011;10675;47.976;7.824;2022-12-13T01:28:37;11.60;;;4.80;;
21032;SDS011;10675;47.976;7.824;2022-12-13T01:31:04;7.70;;;3.77;;
21032;SDS011;10675;47.976;7.824;2022-12-13T01:33:31;18.83;;;5.30;;
21032;SDS011;10675;47.976;7.824;2022-12-13T01:36:00;9.53;;;4.87;;
21032;SDS011;10675;47.976;7.824;2022-12-13T01:38:27;12.30;;;5.83;;
21032;SDS011;10675;47.976;7.824;2022-12-13T01:40:53;9.87;;;5.23;;
21032;SDS011;10675;47.976;7.824;2022-12-13T01:43:23;10.03;;;4.17;;
21032;SDS011;10675;47.976;7.824;2022-12-13T01:45:50;8.00;;;4.60;;
21032;SDS011;10675;47.976;7.824;2022-12-13T01:48:17;8.77;;;5.63;;
21032;SDS011;10675;47.976;7.824;2022-12-13T01:50:47;11.37;;;6.00;;
21032;SDS011;10675;47.976;7.824;2022-12-13T01:53:17;10.70;;;4.43;;
21032;SDS011;10675;47.976;7.824;2022-12-13T01:55:52;9.50;;;5.87;;
21032;SDS011;10675;47.976;7.824;2022-12-13T01:58:22;7.13;;;4.63;;
21032;SDS011;10675;47.976;7.824;2022-12-13T02:00:48;10.83;;;6.43;;
21032;SDS011;10675;47.976;7.824;2022-12-13T02:03:15;10.30;;;5.90;;
21032;SDS011;10675;47.976;7.824;2022-12-13T02:05:47;13.37;;;4.93;;
21032;SDS011;10675;47.976;7.824;2022-12-13T02:08:26;7.20;;;4.47;;
21032;SDS011;10675;47.976;7.824;2022-12-13T02:10:52;8.43;;;4.83;;
21032;SDS011;10675;47.976;7.824;2022-12-13T02:13:18;9.50;;;4.37;;
21032;SDS011;10675;47.976;7.824;2022-12-13T02:15:59;16.07;;;6.33;;
21032;SDS011;10675;47.976;7.824;2022-12-13T02:21:32;9.60;;;5.03;;
21032;SDS011;10675;47.976;7.824;2022-12-13T02:27:12;8.30;;;4.60;;
21032;SDS011;10675;47.976;7.824;2022-12-13T02:35:09;9.20;;;4.83;;
21032;SDS011;10675;47.976;7.824;2022-12-13T02:38:01;13.13;;;4.97;;
21032;SDS011;10675;47.976;7.824;2022-12-13T02:40:38;8.93;;;4.53;;
21032;SDS011;10675;47.976;7.824;2022-12-13T02:45:50;6.97;;;4.27;;
21032;SDS011;10675;47.976;7.824;2022-12-13T02:48:23;17.53;;;6.13;;
21032;SDS011;10675;47.976;7.824;2022-12-13T02:50:56;8.77;;;4.93;;
21032;SDS011;10675;47.976;7.824;2022-12-13T02:53:24;8.13;;;4.43;;
21032;SDS011;10675;47.976;7.824;2022-12-13T02:55:50;10.37;;;5.83;;
21032;SDS011;10675;47.976;7.824;2022-12-13T02:58:18;10.70;;;4.70;;
21032;SDS011;10675;47.976;7.824;2022-12-13T03:14:57;9.27;;;4.30;;
21032;SDS011;10675;47.976;7.824;2022-12-13T03:17:44;5.83;;;4.07;;
21032;SDS011;10675;47.976;7.824;2022-12-13T03:20:21;11.40;;;6.00;;
21032;SDS011;10675;47.976;7.824;2022-12-13T03:22:49;8.23;;;4.67;;
21032;SDS011;10675;47.976;7.824;2022-12-13T03:25:16;9.90;;;4.50;;
21032;SDS011;10675;47.976;7.824;2022-12-13T03:27:42;7.50;;;4.17;;
21032;SDS011;10675;47.976;7.824;2022-12-13T03:30:08;6.13;;;4.30;;
21032;SDS011;10675;47.976;7.824;2022-12-13T03:32:34;8.90;;;5.37;;
21032;SDS011;10675;47.976;7.824;2022-12-13T03:34:59;8.57;;;5.43;;
21032;SDS011;10675;47.976;7.824;2022-12-13T03:37:25;7.67;;;4.67;;
21032;SDS011;10675;47.976;7.824;2022-12-13T03:39:51;10.33;;;5.17;;
21032;SDS011;10675;47.976;7.824;2022-12-13T03:42:16;9.90;;;4.40;;
21032;SDS011;10675;47.976;7.824;2022-12-13T03:44:42;10.83;;;5.33;;
21032;SDS011;10675;47.976;7.824;2022-12-13T03:47:08;13.07;;;5.53;;
21032;SDS011;10675;47.976;7.824;2022-12-13T03:49:33;10.40;;;5.83;;
21032;SDS011;10675;47.976;7.824;2022-12-13T03:51:59;19.07;;;5.90;;
21032;SDS011;10675;47.976;7.824;2022-12-13T03:54:24;11.20;;;5.97;;
21032;SDS011;10675;47.976;7.824;2022-12-13T03:56:50;10.50;;;5.83;;
21032;SDS011;10675;47.976;7.824;2022-12-13T03:59:15;7.33;;;4.33;;
21032;SDS011;10675;47.976;7.824;2022-12-13T04:01:41;11.43;;;5.43;;
21032;SDS011;10675;47.976;7.824;2022-12-13T04:04:06;9.57;;;5.17;;
21032;SDS011;10675;47.976;7.824;2022-12-13T04:06:32;8.70;;;4.70;;
21032;SDS011;10675;47.976;7.824;2022-12-13T04:08:58;10.13;;;5.00;;
21032;SDS011;10675;47.976;7.824;2022-12-13T04:11:24;8.00;;;4.40;;
21032;SDS011;10675;47.976;7.824;2022-12-13T04:14:08;11.37;;;6.33;;
21032;SDS011;10675;47.976;7.824;2022-12-13T04:16:34;10.73;;;5.03;;
21032;SDS011;10675;47.976;7.824;2022-12-13T04:19:00;11.03;;;4.73;;
21032;SDS011;10675;47.976;7.824;2022-12-13T04:21:25;9.97;;;5.60;;
21032;SDS011;10675;47.976;7.824;2022-12-13T04:23:51;12.37;;;4.90;;
21032;SDS011;10675;47.976;7.824;2022-12-13T04:26:16;11.27;;;4.97;;
21032;SDS011;10675;47.976;7.824;2022-12-13T04:28:42;13.20;;;6.10;;
21032;SDS011;10675;47.976;7.824;2022-12-13T04:31:08;9.33;;;5.03;;
21032;SDS011;10675;47.976;7.824;2022-12-13T04:33:33;9.80;;;4.97;;
21032;SDS011;10675;47.976;7.824;2022-12-13T04:35:59;12.80;;;5.03;;
21032;SDS011;10675;47.976;7.824;2022-12-13T04:38:25;9.47;;;5.13;;
21032;SDS011;10675;47.976;7.824;2022-12-13T04:40:50;10.07;;;5.43;;
21032;SDS011;10675;47.976;7.824;2022-12-13T04:43:16;7.67;;;4.10;;
21032;SDS011;10675;47.976;7.824;2022-12-13T04:45:41;8.23;;;4.40;;
21032;SDS011;10675;47.976;7.824;2022-12-13T04:48:07;10.13;;;6.17;;
21032;SDS011;10675;47.976;7.824;2022-12-13T04:50:33;11.57;;;4.87;;
21032;SDS011;10675;47.976;7.824;2022-12-13T04:52:58;8.93;;;4.67;;
21032;SDS011;10675;47.976;7.824;2022-12-13T04:55:24;10.57;;;5.63;;
21032;SDS011;10675;47.976;7.824;2022-12-13T04:57:50;12.37;;;6.73;;
21032;SDS011;10675;47.976;7.824;2022-12-13T05:02:44;14.23;;;6.30;;
21032;SDS011;10675;47.976;7.824;2022-12-13T05:05:10;7.97;;;4.60;;
21032;SDS011;10675;47.976;7.824;2022-12-13T05:07:36;12.27;;;5.37;;
21032;SDS011;10675;47.976;7.824;2022-12-13T05:10:02;9.53;;;5.87;;
21032;SDS011;10675;47.976;7.824;2022-12-13T05:12:27;10.70;;;4.87;;
21032;SDS011;10675;47.976;7.824;2022-12-13T05:14:53;4.73;;;3.43;;
21032;SDS011;10675;47.976;7.824;2022-12-13T05:17:19;7.50;;;4.30;;
21032;SDS011;10675;47.976;7.824;2022-12-13T05:19:45;11.97;;;5.97;;
21032;SDS011;10675;47.976;7.824;2022-12-13T05:22:10;9.97;;;4.37;;
21032;SDS011;10675;47.976;7.824;2022-12-13T05:24:40;8.70;;;5.00;;
21032;SDS011;10675;47.976;7.824;2022-12-13T05:27:06;9.70;;;5.67;;
21032;SDS011;10675;47.976;7.824;2022-12-13T05:29:32;11.77;;;5.73;;
21032;SDS011;10675;47.976;7.824;2022-12-13T05:31:58;10.70;;;4.97;;
21032;SDS011;10675;47.976;7.824;2022-12-13T05:34:23;10.83;;;6.07;;
21032;SDS011;10675;47.976;7.824;2022-12-13T05:36:49;9.23;;;5.37;;
21032;SDS011;10675;47.976;7.824;2022-12-13T05:39:15;12.07;;;5.23;;
21032;SDS011;10675;47.976;7.824;2022-12-13T05:41:40;11.67;;;5.70;;
21032;SDS011;10675;47.976;7.824;2022-12-13T05:44:06;8.27;;;6.33;;
21032;SDS011;10675;47.976;7.824;2022-12-13T05:46:34;9.07;;;5.83;;
21032;SDS011;10675;47.976;7.824;2022-12-13T05:49:00;10.57;;;5.53;;
21032;SDS011;10675;47.976;7.824;2022-12-13T05:51:26;8.97;;;5.10;;
21032;SDS011;10675;47.976;7.824;2022-12-13T05:53:52;12.07;;;4.67;;
21032;SDS011;10675;47.976;7.824;2022-12-13T05:56:17;14.13;;;5.37;;
21032;SDS011;10675;47.976;7.824;2022-12-13T05:58:43;10.13;;;5.07;;
21032;SDS011;10675;47.976;7.824;2022-12-13T06:01:11;6.03;;;3.60;;
21032;SDS011;10675;47.976;7.824;2022-12-13T06:03:38;10.93;;;4.67;;
21032;SDS011;10675;47.976;7.824;2022-12-13T06:06:05;5.43;;;4.07;;
21032;SDS011;10675;47.976;7.824;2022-12-13T06:08:33;8.40;;;4.73;;
21032;SDS011;10675;47.976;7.824;2022-12-13T06:10:59;16.90;;;5.47;;
21032;SDS011;10675;47.976;7.824;2022-12-13T06:13:25;6.43;;;4.60;;
21032;SDS011;10675;47.976;7.824;2022-12-13T06:15:51;8.53;;;3.67;;
21032;SDS011;10675;47.976;7.824;2022-12-13T06:18:18;9.20;;;5.07;;
21032;SDS011;10675;47.976;7.824;2022-12-13T06:20:43;8.63;;;4.40;;
21032;SDS011;10675;47.976;7.824;2022-12-13T06:23:11;10.23;;;4.13;;
21032;SDS011;10675;47.976;7.824;2022-12-13T06:25:37;7.30;;;4.53;;
21032;SDS011;10675;47.976;7.824;2022-12-13T06:28:03;10.23;;;4.80;;
21032;SDS011;10675;47.976;7.824;2022-12-13T06:30:29;12.30;;;5.10;;
21032;SDS011;10675;47.976;7.824;2022-12-13T06:32:55;6.77;;;4.23;;
21032;SDS011;10675;47.976;7.824;2022-12-13T06:35:20;5.87;;;3.87;;
21032;SDS011;10675;47.976;7.824;2022-12-13T06:37:50;8.27;;;4.47;;
21032;SDS011;10675;47.976;7.824;2022-12-13T06:40:16;11.60;;;5.87;;
21032;SDS011;10675;47.976;7.824;2022-12-13T06:42:42;6.30;;;4.90;;
21032;SDS011;10675;47.976;7.824;2022-12-13T06:45:07;12.43;;;5.37;;
21032;SDS011;10675;47.976;7.824;2022-12-13T06:47:33;9.33;;;4.30;;
21032;SDS011;10675;47.976;7.824;2022-12-13T06:49:59;9.80;;;4.67;;
21032;SDS011;10675;47.976;7.824;2022-12-13T06:52:24;9.47;;;5.43;;
21032;SDS011;10675;47.976;7.824;2022-12-13T06:54:50;7.43;;;5.27;;
21032;SDS011;10675;47.976;7.824;2022-12-13T06:57:15;7.60;;;3.80;;
21032;SDS011;10675;47.976;7.824;2022-12-13T06:59:42;5.53;;;3.73;;
21032;SDS011;10675;47.976;7.824;2022-12-13T07:02:07;9.87;;;3.83;;
21032;SDS011;10675;47.976;7.824;2022-12-13T07:04:33;10.83;;;5.97;;
21032;SDS011;10675;47.976;7.824;2022-12-13T07:06:58;9.27;;;4.07;;
21032;SDS011;10675;47.976;7.824;2022-12-13T07:09:24;13.87;;;6.37;;
21032;SDS011;10675;47.976;7.824;2022-12-13T07:11:50;8.43;;;4.57;;
21032;SDS011;10675;47.976;7.824;2022-12-13T07:14:15;9.73;;;4.83;;
21032;SDS011;10675;47.976;7.824;2022-12-13T07:16:41;7.20;;;4.77;;
21032;SDS011;10675;47.976;7.824;2022-12-13T07:19:08;6.63;;;4.80;;
21032;SDS011;10675;47.976;7.824;2022-12-13T07:21:35;6.77;;;4.07;;
21032;SDS011;10675;47.976;7.824;2022-12-13T07:24:02;4.73;;;3.67;;
21032;SDS011;10675;47.976;7.824;2022-12-13T07:26:28;10.53;;;4.67;;
21032;SDS011;10675;47.976;7.824;2022-12-13T07:28:54;20.23;;;4.87;;
21032;SDS011;10675;47.976;7.824;2022-12-13T07:31:20;7.73;;;4.53;;
21032;SDS011;10675;47.976;7.824;2022-12-13T07:33:45;11.83;;;5.60;;
21032;SDS011;10675;47.976;7.824;2022-12-13T07:36:12;11.30;;;3.70;;
21032;SDS011;10675;47.976;7.824;2022-12-13T07:38:39;9.07;;;4.23;;
21032;SDS011;10675;47.976;7.824;2022-12-13T07:41:05;10.53;;;4.67;;
21032;SDS011;10675;47.976;7.824;2022-12-13T07:43:31;10.27;;;6.13;;
21032;SDS011;10675;47.976;7.824;2022-12-13T07:45:57;9.50;;;4.70;;
21032;SDS011;10675;47.976;7.824;2022-12-13T07:48:24;8.27;;;4.50;;
21032;SDS011;10675;47.976;7.824;2022-12-13T07:50:50;13.97;;;5.43;;
21032;SDS011;10675;47.976;7.824;2022-12-13T07:53:16;13.03;;;6.73;;
21032;SDS011;10675;47.976;7.824;2022-12-13T07:55:42;9.23;;;5.00;;
21032;SDS011;10675;47.976;7.824;2022-12-13T07:58:11;10.40;;;4.90;;
21032;SDS011;10675;47.976;7.824;2022-12-13T08:00:39;8.03;;;5.43;;
21032;SDS011;10675;47.976;7.824;2022-12-13T08:03:06;11.43;;;4.77;;
21032;SDS011;10675;47.976;7.824;2022-12-13T08:05:32;12.20;;;5.83;;
21032;SDS011;10675;47.976;7.824;2022-12-13T08:07:59;12.53;;;6.30;;
21032;SDS011;10675;47.976;7.824;2022-12-13T08:10:25;11.33;;;4.67;;
21032;SDS011;10675;47.976;7.824;2022-12-13T08:12:51;16.40;;;7.33;;
21032;SDS011;10675;47.976;7.824;2022-12-13T08:15:17;10.53;;;5.90;;
21032;SDS011;10675;47.976;7.824;2022-12-13T08:17:43;6.97;;;4.33;;
21032;SDS011;10675;47.976;7.824;2022-12-13T08:20:09;12.53;;;6.20;;
21032;SDS011;10675;47.976;7.824;2022-12-13T08:22:34;14.13;;;6.33;;
21032;SDS011;10675;47.976;7.824;2022-12-13T08:25:00;14.57;;;5.47;;
21032;SDS011;10675;47.976;7.824;2022-12-13T08:27:26;9.77;;;4.57;;
21032;SDS011;10675;47.976;7.824;2022-12-13T08:29:52;13.53;;;5.70;;
21032;SDS011;10675;47.976;7.824;2022-12-13T08:32:17;10.63;;;4.83;;
21032;SDS011;10675;47.976;7.824;2022-12-13T08:34:43;13.83;;;7.23;;
21032;SDS011;10675;47.976;7.824;2022-12-13T08:37:09;11.63;;;6.30;;
21032;SDS011;10675;47.976;7.824;2022-12-13T08:39:36;13.00;;;6.60;;
21032;SDS011;10675;47.976;7.824;2022-12-13T08:42:03;14.43;;;5.87;;
21032;SDS011;10675;47.976;7.824;2022-12-13T08:44:39;11.40;;;4.90;;
21032;SDS011;10675;47.976;7.824;2022-12-13T08:47:04;13.10;;;6.57;;
21032;SDS011;10675;47.976;7.824;2022-12-13T08:49:30;11.17;;;5.70;;
21032;SDS011;10675;47.976;7.824;2022-12-13T08:51:56;13.80;;;6.03;;
21032;SDS011;10675;47.976;7.824;2022-12-13T08:54:22;11.73;;;6.53;;
21032;SDS011;10675;47.976;7.824;2022-12-13T08:56:48;16.83;;;6.10;;
21032;SDS011;10675;47.976;7.824;2022-12-13T08:59:13;13.07;;;6.33;;
21032;SDS011;10675;47.976;7.824;2022-12-13T09:01:39;9.70;;;4.70;;
21032;SDS011;10675;47.976;7.824;2022-12-13T09:04:05;14.67;;;7.47;;
21032;SDS011;10675;47.976;7.824;2022-12-13T09:06:30;13.10;;;7.17;;
21032;SDS011;10675;47.976;7.824;2022-12-13T09:08:56;12.77;;;6.73;;
21032;SDS011;10675;47.976;7.824;2022-12-13T09:11:21;14.77;;;6.13;;
21032;SDS011;10675;47.976;7.824;2022-12-13T09:13:48;12.60;;;6.33;;
21032;SDS011;10675;47.976;7.824;2022-12-13T09:16:14;16.00;;;6.63;;
21032;SDS011;10675;47.976;7.824;2022-12-13T09:18:47;13.80;;;6.30;;
21032;SDS011;10675;47.976;7.824;2022-12-13T09:21:14;13.77;;;6.50;;
21032;SDS011;10675;47.976;7.824;2022-12-13T09:23:39;16.73;;;6.97;;
21032;SDS011;10675;47.976;7.824;2022-12-13T09:26:06;9.83;;;5.67;;
21032;SDS011;10675;47.976;7.824;2022-12-13T09:28:33;13.03;;;6.23;;
21032;SDS011;10675;47.976;7.824;2022-12-13T09:31:04;12.97;;;6.80;;
21032;SDS011;10675;47.976;7.824;2022-12-13T09:33:37;13.13;;;6.33;;
21032;SDS011;10675;47.976;7.824;2022-12-13T09:36:04;16.17;;;8.03;;
21032;SDS011;10675;47.976;7.824;2022-12-13T09:38:32;13.30;;;5.87;;
21032;SDS011;10675;47.976;7.824;2022-12-13T09:40:59;13.10;;;6.57;;
21032;SDS011;10675;47.976;7.824;2022-12-13T09:43:33;15.23;;;6.90;;
21032;SDS011;10675;47.976;7.824;2022-12-13T09:46:00;12.50;;;6.50;;
21032;SDS011;10675;47.976;7.824;2022-12-13T09:48:31;21.07;;;7.50;;
21032;SDS011;10675;47.976;7.824;2022-12-13T09:50:57;8.03;;;5.33;;
21032;SDS011;10675;47.976;7.824;2022-12-13T09:53:24;10.77;;;5.83;;
21032;SDS011;10675;47.976;7.824;2022-12-13T09:55:49;13.70;;;7.23;;
21032;SDS011;10675;47.976;7.824;2022-12-13T10:00:44;13.17;;;6.23;;
21032;SDS011;10675;47.976;7.824;2022-12-13T10:03:13;14.97;;;6.30;;
21032;SDS011;10675;47.976;7.824;2022-12-13T10:05:43;12.97;;;8.07;;
21032;SDS011;10675;47.976;7.824;2022-12-13T10:08:14;16.10;;;7.40;;
21032;SDS011;10675;47.976;7.824;2022-12-13T10:10:44;13.70;;;6.73;;
21032;SDS011;10675;47.976;7.824;2022-12-13T10:15:56;12.03;;;6.27;;
21032;SDS011;10675;47.976;7.824;2022-12-13T10:18:33;18.93;;;7.50;;
21032;SDS011;10675;47.976;7.824;2022-12-13T10:23:46;15.20;;;7.50;;
21032;SDS011;10675;47.976;7.824;2022-12-13T10:26:12;16.23;;;7.87;;
21032;SDS011;10675;47.976;7.824;2022-12-13T10:28:38;13.90;;;6.90;;
21032;SDS011;10675;47.976;7.824;2022-12-13T10:31:06;15.30;;;7.70;;
21032;SDS011;10675;47.976;7.824;2022-12-13T10:33:32;14.20;;;7.80;;
21032;SDS011;10675;47.976;7.824;2022-12-13T10:38:39;15.43;;;5.60;;
21032;SDS011;10675;47.976;7.824;2022-12-13T10:46:58;12.13;;;6.70;;
21032;SDS011;10675;47.976;7.824;2022-12-13T10:49:37;10.70;;;6.33;;
21032;SDS011;10675;47.976;7.824;2022-12-13T10:52:30;14.47;;;6.87;;
21032;SDS011;10675;47.976;7.824;2022-12-13T10:55:03;11.70;;;5.27;;
21032;SDS011;10675;47.976;7.824;2022-12-13T10:57:31;10.80;;;5.70;;
21032;SDS011;10675;47.976;7.824;2022-12-13T10:59:57;13.47;;;5.73;;
21032;SDS011;10675;47.976;7.824;2022-12-13T11:02:26;14.13;;;6.53;;
21032;SDS011;10675;47.976;7.824;2022-12-13T11:04:53;9.70;;;5.30;;
21032;SDS011;10675;47.976;7.824;2022-12-13T11:07:23;13.00;;;6.60;;
21032;SDS011;10675;47.976;7.824;2022-12-13T11:09:51;13.17;;;6.30;;
21032;SDS011;10675;47.976;7.824;2022-12-13T11:12:18;10.63;;;6.47;;
21032;SDS011;10675;47.976;7.824;2022-12-13T11:14:57;10.03;;;5.23;;
21032;SDS011;10675;47.976;7.824;2022-12-13T11:17:30;18.37;;;6.27;;
21032;SDS011;10675;47.976;7.824;2022-12-13T11:20:01;12.67;;;6.27;;
21032;SDS011;10675;47.976;7.824;2022-12-13T11:22:34;12.90;;;5.23;;
21032;SDS011;10675;47.976;7.824;2022-12-13T11:25:02;12.63;;;6.87;;
21032;SDS011;10675;47.976;7.824;2022-12-13T11:27:37;11.33;;;5.90;;
21032;SDS011;10675;47.976;7.824;2022-12-13T11:36:37;9.10;;;5.97;;
21032;SDS011;10675;47.976;7.824;2022-12-13T11:39:02;11.20;;;5.47;;
21032;SDS011;10675;47.976;7.824;2022-12-13T11:41:37;12.73;;;5.83;;
21032;SDS011;10675;47.976;7.824;2022-12-13T11:44:17;13.50;;;5.73;;
21032;SDS011;10675;47.976;7.824;2022-12-13T11:46:47;11.77;;;5.83;;
21032;SDS011;10675;47.976;7.824;2022-12-13T11:52:01;14.53;;;6.83;;
21032;SDS011;10675;47.976;7.824;2022-12-13T11:54:43;10.83;;;5.90;;
21032;SDS011;10675;47.976;7.824;2022-12-13T11:57:25;12.90;;;6.57;;
21032;SDS011;10675;47.976;7.824;2022-12-13T12:03:19;14.00;;;6.23;;
21032;SDS011;10675;47.976;7.824;2022-12-13T12:06:20;16.93;;;6.83;;
21032;SDS011;10675;47.976;7.824;2022-12-13T12:08:57;10.97;;;4.67;;
21032;SDS011;10675;47.976;7.824;2022-12-13T12:16:59;12.07;;;6.93;;
21032;SDS011;10675;47.976;7.824;2022-12-13T12:19:33;11.40;;;5.63;;
21032;SDS011;10675;47.976;7.824;2022-12-13T12:22:16;10.47;;;6.50;;
21032;SDS011;10675;47.976;7.824;2022-12-13T12:25:02;8.97;;;5.43;;
21032;SDS011;10675;47.976;7.824;2022-12-13T12:27:49;15.27;;;7.03;;
21032;SDS011;10675;47.976;7.824;2022-12-13T12:46:36;16.20;;;6.60;;
21032;SDS011;10675;47.976;7.824;2022-12-13T13:00:54;12.30;;;6.50;;
21032;SDS011;10675;47.976;7.824;2022-12-13T13:03:27;8.27;;;5.70;;
21032;SDS011;10675;47.976;7.824;2022-12-13T13:06:01;13.07;;;7.53;;
21032;SDS011;10675;47.976;7.824;2022-12-13T13:08:35;10.93;;;5.17;;
21032;SDS011;10675;47.976;7.824;2022-12-13T13:11:13;13.17;;;5.43;;
21032;SDS011;10675;47.976;7.824;2022-12-13T13:19:01;15.53;;;7.47;;
21032;SDS011;10675;47.976;7.824;2022-12-13T13:21:59;19.80;;;8.10;;
21032;SDS011;10675;47.976;7.824;2022-12-13T13:24:25;14.60;;;6.23;;
21032;SDS011;10675;47.976;7.824;2022-12-13T13:26:56;12.40;;;6.90;;
21032;SDS011;10675;47.976;7.824;2022-12-13T13:29:42;15.07;;;6.80;;
21032;SDS011;10675;47.976;7.824;2022-12-13T13:34:36;14.07;;;7.03;;
21032;SDS011;10675;47.976;7.824;2022-12-13T13:59:04;15.67;;;7.03;;
21032;SDS011;10675;47.976;7.824;2022-12-13T14:10:19;18.43;;;7.60;;
21032;SDS011;10675;47.976;7.824;2022-12-13T14:24:36;15.37;;;7.93;;
21032;SDS011;10675;47.976;7.824;2022-12-13T14:27:18;14.50;;;7.87;;
21032;SDS011;10675;47.976;7.824;2022-12-13T14:30:03;17.13;;;7.13;;
21032;SDS011;10675;47.976;7.824;2022-12-13T14:32:30;15.23;;;7.03;;
21032;SDS011;10675;47.976;7.824;2022-12-13T14:35:02;16.87;;;8.80;;
21032;SDS011;10675;47.976;7.824;2022-12-13T14:37:29;13.30;;;7.33;;
21032;SDS011;10675;47.976;7.824;2022-12-13T14:39:57;12.00;;;6.77;;
21032;SDS011;10675;47.976;7.824;2022-12-13T14:42:24;14.87;;;7.47;;
21032;SDS011;10675;47.976;7.824;2022-12-13T14:44:53;11.70;;;6.37;;
21032;SDS011;10675;47.976;7.824;2022-12-13T14:47:20;14.07;;;6.30;;
21032;SDS011;10675;47.976;7.824;2022-12-13T14:49:47;15.10;;;6.93;;
21032;SDS011;10675;47.976;7.824;2022-12-13T14:52:22;13.60;;;7.30;;
21032;SDS011;10675;47.976;7.824;2022-12-13T14:54:54;17.43;;;6.73;;
21032;SDS011;10675;47.976;7.824;2022-12-13T14:57:25;12.87;;;6.57;;
21032;SDS011;10675;47.976;7.824;2022-12-13T14:59:53;15.37;;;7.53;;
21032;SDS011;10675;47.976;7.824;2022-12-13T15:02:22;11.30;;;6.70;;
21032;SDS011;10675;47.976;7.824;2022-12-13T15:04:53;16.27;;;7.80;;
21032;SDS011;10675;47.976;7.824;2022-12-13T15:10:14;20.83;;;7.03;;
21032;SDS011;10675;47.976;7.824;2022-12-13T15:12:45;18.87;;;7.47;;
21032;SDS011;10675;47.976;7.824;2022-12-13T15:18:19;8.93;;;5.87;;
21032;SDS011;10675;47.976;7.824;2022-12-13T15:20:50;10.13;;;5.50;;
21032;SDS011;10675;47.976;7.824;2022-12-13T15:25:42;15.90;;;7.33;;
21032;SDS011;10675;47.976;7.824;2022-12-13T15:28:11;17.37;;;7.80;;
21032;SDS011;10675;47.976;7.824;2022-12-13T15:30:38;14.43;;;6.80;;
21032;SDS011;10675;47.976;7.824;2022-12-13T15:33:18;10.50;;;5.83;;
21032;SDS011;10675;47.976;7.824;2022-12-13T15:35:47;12.73;;;6.37;;
21032;SDS011;10675;47.976;7.824;2022-12-13T15:38:24;10.37;;;5.83;;
21032;SDS011;10675;47.976;7.824;2022-12-13T15:40:50;11.13;;;6.23;;
21032;SDS011;10675;47.976;7.824;2022-12-13T15:43:16;11.13;;;6.80;;
21032;SDS011;10675;47.976;7.824;2022-12-13T15:45:46;12.40;;;6.47;;
21032;SDS011;10675;47.976;7.824;2022-12-13T15:51:11;9.43;;;5.77;;
21032;SDS011;10675;47.976;7.824;2022-12-13T15:53:38;11.90;;;6.37;;
21032;SDS011;10675;47.976;7.824;2022-12-13T15:56:30;15.00;;;6.73;;
21032;SDS011;10675;47.976;7.824;2022-12-13T15:58:56;13.20;;;6.63;;
21032;SDS011;10675;47.976;7.824;2022-12-13T16:01:32;12.53;;;6.23;;
21032;SDS011;10675;47.976;7.824;2022-12-13T16:04:00;12.80;;;6.97;;
21032;SDS011;10675;47.976;7.824;2022-12-13T16:06:27;15.73;;;7.57;;
21032;SDS011;10675;47.976;7.824;2022-12-13T16:08:55;10.97;;;6.97;;
21032;SDS011;10675;47.976;7.824;2022-12-13T16:11:28;16.83;;;7.13;;
21032;SDS011;10675;47.976;7.824;2022-12-13T16:14:40;19.77;;;9.27;;
21032;SDS011;10675;47.976;7.824;2022-12-13T16:16:52;13.90;;;6.30;;
21032;SDS011;10675;47.976;7.824;2022-12-13T16:19:19;9.70;;;5.20;;
21032;SDS011;10675;47.976;7.824;2022-12-13T16:21:45;12.53;;;6.73;;
21032;SDS011;10675;47.976;7.824;2022-12-13T16:24:10;12.17;;;7.00;;
21032;SDS011;10675;47.976;7.824;2022-12-13T16:26:36;9.73;;;6.27;;
21032;SDS011;10675;47.976;7.824;2022-12-13T16:29:07;13.43;;;7.70;;
21032;SDS011;10675;47.976;7.824;2022-12-13T16:31:35;13.57;;;7.23;;
21032;SDS011;10675;47.976;7.824;2022-12-13T16:34:02;15.03;;;8.20;;
21032;SDS011;10675;47.976;7.824;2022-12-13T16:36:28;11.73;;;7.00;;
21032;SDS011;10675;47.976;7.824;2022-12-13T16:38:54;13.60;;;7.53;;
21032;SDS011;10675;47.976;7.824;2022-12-13T16:41:20;14.10;;;7.17;;
21032;SDS011;10675;47.976;7.824;2022-12-13T16:43:50;12.63;;;7.00;;
21032;SDS011;10675;47.976;7.824;2022-12-13T16:46:18;11.93;;;6.80;;
21032;SDS011;10675;47.976;7.824;2022-12-13T16:48:43;12.63;;;6.87;;
21032;SDS011;10675;47.976;7.824;2022-12-13T16:51:09;14.67;;;7.77;;
21032;SDS011;10675;47.976;7.824;2022-12-13T16:53:35;26.20;;;7.33;;
21032;SDS011;10675;47.976;7.824;2022-12-13T16:56:00;13.67;;;7.07;;
21032;SDS011;10675;47.976;7.824;2022-12-13T16:58:26;15.57;;;7.37;;
21032;SDS011;10675;47.976;7.824;2022-12-13T17:01:06;16.23;;;7.33;;
21032;SDS011;10675;47.976;7.824;2022-12-13T17:03:36;9.77;;;6.13;;
21032;SDS011;10675;47.976;7.824;2022-12-13T17:06:02;15.97;;;6.70;;
21032;SDS011;10675;47.976;7.824;2022-12-13T17:08:28;14.63;;;8.27;;
21032;SDS011;10675;47.976;7.824;2022-12-13T17:10:54;17.37;;;7.27;;
21032;SDS011;10675;47.976;7.824;2022-12-13T17:13:20;16.90;;;8.43;;
21032;SDS011;10675;47.976;7.824;2022-12-13T17:15:46;16.33;;;8.57;;
21032;SDS011;10675;47.976;7.824;2022-12-13T17:18:11;14.83;;;7.87;;
21032;SDS011;10675;47.976;7.824;2022-12-13T17:20:37;17.33;;;7.67;;